createdAt,value
2023-07-26T00:02:01.060Z,5.88
2023-07-26T00:04:28.360Z,5.38
2023-07-26T00:06:55.913Z,7.95
2023-07-26T00:09:23.187Z,9.93
2023-07-26T00:11:50.780Z,5.00
2023-07-26T00:14:18.033Z,4.35
2023-07-26T00:16:45.573Z,5.70
2023-07-26T00:19:12.896Z,5.45
2023-07-26T00:21:40.484Z,5.80
2023-07-26T00:24:07.758Z,8.10
2023-07-26T00:26:36.038Z,7.75
2023-07-26T00:29:03.415Z,5.88
2023-07-26T00:31:31.069Z,6.97
2023-07-26T00:33:58.388Z,10.80
2023-07-26T00:36:28.391Z,7.00
2023-07-26T00:38:55.700Z,8.68
2023-07-26T00:41:23.299Z,8.82
2023-07-26T00:43:50.587Z,12.57
2023-07-26T00:46:18.650Z,8.23
2023-07-26T00:48:45.960Z,11.68
2023-07-26T00:51:13.933Z,7.43
2023-07-26T00:53:41.229Z,6.57
2023-07-26T00:56:08.904Z,6.88
2023-07-26T00:58:36.378Z,8.40
2023-07-26T01:01:04.124Z,4.82
2023-07-26T01:03:31.874Z,8.10
2023-07-26T01:06:09.273Z,6.55
2023-07-26T01:08:42.348Z,8.23
2023-07-26T01:11:16.260Z,4.57
2023-07-26T01:13:54.192Z,4.90
2023-07-26T01:16:22.546Z,6.57
2023-07-26T01:18:49.902Z,7.90
2023-07-26T01:21:17.461Z,8.55
2023-07-26T01:23:44.762Z,10.65
2023-07-26T01:26:12.316Z,8.63
2023-07-26T01:28:39.641Z,8.23
2023-07-26T01:31:07.427Z,7.25
2023-07-26T01:33:35.506Z,6.90
2023-07-26T01:36:03.496Z,7.40
2023-07-26T01:38:31.226Z,8.93
2023-07-26T01:40:59.412Z,9.98
2023-07-26T01:43:27.328Z,10.07
2023-07-26T01:45:55.015Z,5.68
2023-07-26T01:48:22.327Z,8.93
2023-07-26T01:50:49.936Z,4.20
2023-07-26T01:53:17.353Z,4.43
2023-07-26T01:55:44.944Z,5.05
2023-07-26T01:58:12.284Z,3.33
2023-07-26T02:00:39.831Z,3.33
2023-07-26T02:03:07.148Z,6.07
2023-07-26T02:05:34.817Z,8.68
2023-07-26T02:08:02.103Z,4.05
2023-07-26T02:10:29.652Z,4.93
2023-07-26T02:12:56.956Z,2.95
2023-07-26T02:15:24.524Z,3.90
2023-07-26T02:17:51.959Z,3.83
2023-07-26T02:20:19.606Z,4.28
2023-07-26T02:22:46.964Z,4.53
2023-07-26T02:25:14.607Z,4.20
2023-07-26T02:27:41.914Z,7.18
2023-07-26T02:30:09.653Z,4.78
2023-07-26T02:32:36.984Z,4.05
2023-07-26T02:35:04.842Z,4.40
2023-07-26T02:37:32.146Z,7.28
2023-07-26T02:39:59.681Z,5.70
2023-07-26T02:42:26.990Z,4.22
2023-07-26T02:44:55.042Z,4.70
2023-07-26T02:47:22.471Z,5.15
2023-07-26T02:49:50.098Z,6.22
2023-07-26T02:52:17.366Z,7.82
2023-07-26T02:54:44.916Z,5.28
2023-07-26T02:57:12.336Z,5.78
2023-07-26T02:59:41.728Z,5.97
2023-07-26T03:02:09.087Z,4.93
2023-07-26T03:04:36.915Z,5.82
2023-07-26T03:07:04.322Z,5.82
2023-07-26T03:09:31.933Z,6.10
2023-07-26T03:11:59.310Z,8.15
2023-07-26T03:14:26.873Z,6.63
2023-07-26T03:16:55.336Z,10.13
2023-07-26T03:19:25.682Z,6.57
2023-07-26T03:21:52.955Z,7.63
2023-07-26T03:24:21.387Z,6.45
2023-07-26T03:26:48.682Z,7.68
2023-07-26T03:29:16.240Z,10.80
2023-07-26T03:31:43.505Z,8.07
2023-07-26T03:34:11.142Z,9.25
2023-07-26T03:36:38.468Z,7.97
2023-07-26T03:39:06.008Z,9.40
2023-07-26T03:41:33.340Z,9.32
2023-07-26T03:44:00.892Z,7.28
2023-07-26T03:46:28.343Z,10.05
2023-07-26T03:48:55.929Z,11.40
2023-07-26T03:51:23.225Z,10.73
2023-07-26T03:53:50.810Z,9.55
2023-07-26T03:56:18.068Z,8.98
2023-07-26T03:58:45.685Z,8.30
2023-07-26T04:01:13.133Z,8.77
2023-07-26T04:03:40.851Z,9.30
2023-07-26T04:06:11.901Z,10.55
2023-07-26T04:08:40.090Z,7.17
2023-07-26T04:11:07.538Z,8.95
2023-07-26T04:13:35.264Z,7.90
2023-07-26T04:16:02.561Z,6.38
2023-07-26T04:18:30.142Z,9.52
2023-07-26T04:20:57.376Z,10.98
2023-07-26T04:23:24.946Z,11.35
2023-07-26T04:25:52.213Z,9.27
2023-07-26T04:28:19.782Z,7.30
2023-07-26T04:30:47.095Z,8.48
2023-07-26T04:33:14.723Z,7.45
2023-07-26T04:35:42.004Z,7.93
2023-07-26T04:38:09.583Z,9.73
2023-07-26T04:40:37.772Z,8.20
2023-07-26T04:43:05.362Z,8.23
2023-07-26T04:45:32.687Z,5.88
2023-07-26T04:48:00.333Z,9.90
2023-07-26T04:50:27.637Z,8.02
2023-07-26T04:52:55.187Z,11.82
2023-07-26T04:55:22.572Z,8.60
2023-07-26T04:57:50.113Z,7.80
2023-07-26T05:00:17.519Z,7.82
2023-07-26T05:02:45.167Z,10.85
2023-07-26T05:05:12.481Z,11.30
2023-07-26T05:07:40.050Z,12.00
2023-07-26T05:10:07.702Z,10.45
2023-07-26T05:12:35.273Z,9.82
2023-07-26T05:15:02.515Z,10.10
2023-07-26T05:17:30.152Z,10.90
2023-07-26T05:19:57.468Z,12.40
2023-07-26T05:22:25.026Z,13.05
2023-07-26T05:24:52.343Z,14.80
2023-07-26T05:27:19.934Z,18.20
2023-07-26T05:29:47.255Z,16.63
2023-07-26T05:32:14.832Z,15.07
2023-07-26T05:34:42.108Z,12.05
2023-07-26T05:37:09.652Z,10.30
2023-07-26T05:39:36.942Z,10.57
2023-07-26T05:42:04.638Z,14.38
2023-07-26T05:44:31.976Z,13.13
2023-07-26T05:46:59.488Z,10.43
2023-07-26T05:49:26.843Z,11.85
2023-07-26T05:51:54.855Z,10.80
2023-07-26T05:54:22.178Z,11.60
2023-07-26T05:56:49.816Z,8.02
2023-07-26T05:59:17.095Z,8.95
2023-07-26T06:01:44.735Z,9.25
2023-07-26T06:04:12.103Z,9.25
2023-07-26T06:06:39.734Z,9.30
2023-07-26T06:09:07.009Z,9.18
2023-07-26T06:11:40.648Z,9.75
2023-07-26T06:14:18.829Z,8.75
2023-07-26T06:16:46.960Z,8.23
2023-07-26T06:19:14.327Z,11.45
2023-07-26T06:21:41.923Z,8.73
2023-07-26T06:24:09.212Z,7.20
2023-07-26T06:26:36.761Z,8.43
2023-07-26T06:29:04.036Z,10.48
2023-07-26T06:31:31.996Z,8.65
2023-07-26T06:33:59.846Z,8.20
2023-07-26T06:36:27.406Z,5.65
2023-07-26T06:38:54.686Z,6.53
2023-07-26T06:41:22.326Z,9.77
2023-07-26T06:43:49.588Z,7.60
2023-07-26T06:46:17.277Z,6.22
2023-07-26T06:48:46.154Z,5.25
2023-07-26T06:51:13.937Z,4.70
2023-07-26T06:53:41.208Z,5.82
2023-07-26T06:56:08.918Z,4.82
2023-07-26T06:58:36.212Z,5.70
2023-07-26T07:01:03.800Z,5.20
2023-07-26T07:03:31.077Z,6.20
2023-07-26T07:05:58.649Z,5.93
2023-07-26T07:08:25.913Z,5.50
2023-07-26T07:10:53.515Z,4.68
2023-07-26T07:13:20.807Z,4.72
2023-07-26T07:15:48.429Z,6.45
2023-07-26T07:18:16.586Z,7.38
2023-07-26T07:20:44.557Z,5.72
2023-07-26T07:23:12.007Z,4.18
2023-07-26T07:25:39.631Z,6.20
2023-07-26T07:28:06.965Z,6.03
2023-07-26T07:30:34.595Z,7.00
2023-07-26T07:33:02.043Z,7.85
2023-07-26T07:35:29.672Z,4.93
2023-07-26T07:37:56.954Z,8.70
2023-07-26T07:40:24.551Z,4.38
2023-07-26T07:42:52.064Z,4.88
2023-07-26T07:45:19.614Z,5.13
2023-07-26T07:47:46.914Z,6.78
2023-07-26T07:50:14.471Z,7.53
2023-07-26T07:52:41.777Z,4.30
2023-07-26T07:55:09.489Z,5.63
2023-07-26T07:57:36.837Z,5.60
2023-07-26T08:00:04.714Z,5.78
2023-07-26T08:02:32.063Z,7.90
2023-07-26T08:04:59.607Z,6.82
2023-07-26T08:07:26.928Z,10.43
2023-07-26T08:09:54.455Z,11.93
2023-07-26T08:12:21.740Z,10.23
2023-07-26T08:14:52.594Z,9.32
2023-07-26T08:17:19.922Z,6.30
2023-07-26T08:19:47.581Z,5.88
2023-07-26T08:22:14.896Z,8.15
2023-07-26T08:24:42.876Z,6.70
2023-07-26T08:27:10.832Z,4.75
2023-07-26T08:29:38.533Z,5.47
2023-07-26T08:32:06.597Z,6.63
2023-07-26T08:34:34.192Z,5.95
2023-07-26T08:37:01.594Z,7.97
2023-07-26T08:39:35.583Z,6.93
2023-07-26T08:42:04.323Z,8.35
2023-07-26T08:44:31.919Z,6.68
2023-07-26T08:47:00.400Z,9.60
2023-07-26T08:49:28.782Z,8.80
2023-07-26T08:51:58.552Z,10.98
2023-07-26T08:54:26.475Z,10.30
2023-07-26T08:56:54.150Z,6.00
2023-07-26T08:59:21.736Z,9.07
2023-07-26T09:02:01.973Z,5.75
2023-07-26T09:04:31.779Z,9.27
2023-07-26T09:07:03.153Z,8.23
2023-07-26T09:09:32.098Z,7.80
2023-07-26T09:11:59.845Z,7.50
2023-07-26T09:14:28.023Z,7.43
2023-07-26T09:16:55.933Z,8.23
2023-07-26T09:19:30.204Z,6.97
2023-07-26T09:22:01.754Z,10.05
2023-07-26T09:24:36.678Z,7.57
2023-07-26T09:27:07.833Z,10.50
2023-07-26T09:29:37.561Z,10.40
2023-07-26T09:32:05.865Z,9.45
2023-07-26T09:34:33.626Z,6.05
2023-07-26T09:37:01.076Z,7.78
2023-07-26T09:39:29.157Z,7.30
2023-07-26T09:42:09.368Z,5.60
2023-07-26T09:44:37.122Z,7.18
2023-07-26T09:47:05.175Z,6.10
2023-07-26T09:49:33.133Z,3.70
2023-07-26T09:54:35.054Z,6.60
2023-07-26T09:57:03.596Z,6.47
2023-07-26T09:59:31.510Z,7.43
2023-07-26T10:02:00.600Z,5.32
2023-07-26T10:04:34.532Z,5.97
2023-07-26T10:07:03.554Z,4.35
2023-07-26T10:09:32.270Z,5.90
2023-07-26T10:12:00.529Z,6.28
2023-07-26T10:14:29.721Z,5.65
2023-07-26T10:16:57.182Z,6.70
2023-07-26T10:19:25.038Z,4.93
2023-07-26T10:21:52.391Z,3.63
2023-07-26T10:24:20.718Z,5.22
2023-07-26T10:26:48.506Z,6.15
2023-07-26T10:29:16.503Z,6.57
2023-07-26T10:31:44.158Z,5.85
2023-07-26T10:34:19.062Z,3.85
2023-07-26T10:36:46.348Z,3.00
2023-07-26T10:39:13.910Z,5.75
2023-07-26T10:41:48.165Z,4.50
2023-07-26T10:44:15.947Z,4.68
2023-07-26T10:46:56.265Z,4.80
2023-07-26T10:49:28.121Z,2.55
2023-07-26T10:51:56.463Z,4.38
2023-07-26T10:54:37.815Z,3.40
2023-07-26T10:57:14.718Z,10.57
2023-07-26T11:00:01.049Z,4.38
2023-07-26T11:02:35.482Z,3.85
2023-07-26T11:05:03.934Z,1.67
2023-07-26T11:07:50.650Z,2.67
2023-07-26T11:10:19.359Z,3.83
2023-07-26T11:12:49.161Z,2.53
2023-07-26T11:16:12.410Z,6.18
2023-07-26T11:18:14.820Z,3.83
2023-07-26T11:20:46.730Z,2.97
2023-07-26T11:23:18.163Z,3.47
2023-07-26T11:25:46.606Z,3.08
2023-07-26T11:28:14.161Z,3.30
2023-07-26T11:30:49.165Z,3.95
2023-07-26T11:33:36.029Z,2.45
2023-07-26T11:36:04.720Z,3.00
2023-07-26T11:38:32.082Z,5.30
2023-07-26T11:40:59.669Z,3.45
2023-07-26T11:43:27.566Z,2.63
2023-07-26T11:45:56.165Z,2.83
2023-07-26T11:48:23.688Z,2.88
2023-07-26T11:50:54.729Z,4.40
2023-07-26T11:53:41.596Z,2.45
2023-07-26T11:56:11.047Z,5.25
2023-07-26T11:58:38.357Z,4.53
2023-07-26T12:01:06.638Z,4.20
2023-07-26T12:03:34.375Z,3.20
2023-07-26T12:06:08.317Z,3.72
2023-07-26T12:08:36.788Z,2.75
2023-07-26T12:11:04.681Z,3.15
2023-07-26T12:13:33.547Z,3.42
2023-07-26T12:16:02.234Z,8.68
2023-07-26T12:18:29.581Z,4.25
2023-07-26T12:21:02.866Z,2.92
2023-07-26T12:23:49.786Z,4.05
2023-07-26T12:26:17.904Z,2.88
2023-07-26T12:28:48.248Z,2.78
2023-07-26T12:31:21.783Z,2.70
2023-07-26T12:33:55.249Z,4.57
2023-07-26T12:36:23.509Z,2.42
2023-07-26T12:38:50.962Z,2.65
2023-07-26T12:41:18.601Z,3.83
2023-07-26T12:43:51.213Z,2.78
2023-07-26T12:46:18.892Z,5.88
2023-07-26T12:48:46.216Z,2.25
2023-07-26T12:51:13.865Z,4.57
2023-07-26T12:53:41.148Z,2.58
2023-07-26T12:56:08.696Z,4.90
2023-07-26T12:58:36.014Z,2.85
2023-07-26T13:01:03.619Z,3.45
2023-07-26T13:03:31.191Z,5.43
2023-07-26T13:05:58.891Z,3.58
2023-07-26T13:08:26.219Z,2.30
2023-07-26T13:10:53.844Z,5.10
2023-07-26T13:13:21.284Z,1.63
2023-07-26T13:15:48.887Z,2.33
2023-07-26T13:18:16.254Z,5.05
2023-07-26T13:20:43.856Z,3.50
2023-07-26T13:23:11.277Z,4.47
2023-07-26T13:25:39.104Z,3.33
2023-07-26T13:28:06.566Z,8.15
2023-07-26T13:30:34.269Z,3.15
2023-07-26T13:33:01.582Z,2.72
2023-07-26T13:35:29.652Z,1.58
2023-07-26T13:37:56.922Z,2.25
2023-07-26T13:40:24.486Z,1.08
2023-07-26T13:42:51.826Z,1.30
2023-07-26T13:45:19.383Z,1.48
2023-07-26T13:47:46.755Z,1.67
2023-07-26T13:50:14.309Z,2.95
2023-07-26T13:52:41.601Z,4.28
2023-07-26T13:55:09.332Z,3.08
2023-07-26T13:57:36.595Z,1.83
2023-07-26T14:00:04.408Z,1.70
2023-07-26T14:02:31.757Z,1.63
2023-07-26T14:04:59.376Z,3.15
2023-07-26T14:07:26.760Z,2.92
2023-07-26T14:09:54.405Z,5.25
2023-07-26T14:12:23.525Z,4.80
2023-07-26T14:14:51.097Z,1.30
2023-07-26T14:17:18.409Z,2.30
2023-07-26T14:19:46.177Z,2.55
2023-07-26T14:22:13.573Z,4.07
2023-07-26T14:24:41.278Z,1.85
2023-07-26T14:27:08.697Z,1.63
2023-07-26T14:29:36.255Z,2.55
2023-07-26T14:32:03.637Z,2.13
2023-07-26T14:34:31.228Z,1.88
2023-07-26T14:36:58.537Z,2.22
2023-07-26T14:39:26.091Z,2.58
2023-07-26T14:41:53.367Z,3.78
2023-07-26T14:44:20.903Z,1.48
2023-07-26T14:46:48.199Z,3.20
2023-07-26T14:49:15.805Z,3.13
2023-07-26T14:51:43.167Z,2.35
2023-07-26T14:54:10.734Z,0.93
2023-07-26T14:56:38.015Z,2.83
2023-07-26T14:59:05.622Z,3.30
2023-07-26T15:01:32.950Z,3.38
2023-07-26T15:04:00.902Z,3.20
2023-07-26T15:06:28.568Z,2.15
2023-07-26T15:08:56.676Z,1.20
2023-07-26T15:11:24.356Z,1.83
2023-07-26T15:13:51.916Z,3.85
2023-07-26T15:16:19.243Z,1.42
2023-07-26T15:18:46.830Z,2.75
2023-07-26T15:21:14.112Z,1.77
2023-07-26T15:23:41.674Z,4.20
2023-07-26T15:26:08.989Z,2.55
2023-07-26T15:28:36.703Z,1.52
2023-07-26T15:31:04.101Z,2.35
2023-07-26T15:33:31.830Z,2.22
2023-07-26T15:35:59.196Z,2.10
2023-07-26T15:38:26.800Z,1.83
2023-07-26T15:40:54.142Z,2.33
2023-07-26T15:43:23.390Z,6.30
2023-07-26T15:48:21.658Z,2.65
2023-07-26T15:53:19.639Z,1.50
2023-07-26T15:55:49.432Z,3.17
2023-07-26T15:58:18.735Z,1.38
2023-07-26T16:00:46.068Z,1.27
2023-07-26T16:03:13.830Z,3.25
2023-07-26T16:05:41.409Z,1.50
2023-07-26T16:08:11.989Z,3.33
2023-07-26T16:10:39.509Z,2.65
2023-07-26T16:13:07.088Z,1.55
2023-07-26T16:15:36.203Z,3.15
2023-07-26T16:18:24.419Z,4.72
2023-07-26T16:23:23.252Z,1.63
2023-07-26T16:25:50.540Z,4.25
2023-07-26T16:28:18.120Z,2.97
2023-07-26T16:30:45.434Z,2.28
2023-07-26T16:33:12.997Z,1.83
2023-07-26T16:35:40.297Z,3.75
2023-07-26T16:38:08.038Z,1.23
2023-07-26T16:40:35.321Z,2.25
2023-07-26T16:43:04.006Z,4.70
2023-07-26T16:45:31.442Z,5.18
2023-07-26T16:47:59.062Z,3.20
2023-07-26T16:50:26.363Z,1.10
2023-07-26T16:52:53.928Z,2.33
2023-07-26T16:55:21.290Z,4.55
2023-07-26T16:57:48.876Z,2.92
2023-07-26T17:00:16.328Z,4.05
2023-07-26T17:02:44.012Z,2.38
2023-07-26T17:05:11.519Z,2.45
2023-07-26T17:07:39.084Z,1.48
2023-07-26T17:10:06.743Z,2.35
2023-07-26T17:12:34.336Z,1.17
2023-07-26T17:15:01.673Z,1.98
2023-07-26T17:17:29.310Z,1.77
2023-07-26T17:19:56.618Z,1.90
2023-07-26T17:22:24.209Z,3.42
2023-07-26T17:24:51.808Z,2.25
2023-07-26T17:27:19.475Z,1.77
2023-07-26T17:29:46.835Z,4.15
2023-07-26T17:32:14.427Z,3.03
2023-07-26T17:34:41.693Z,1.88
2023-07-26T17:37:09.258Z,3.35
2023-07-26T17:39:36.510Z,2.45
2023-07-26T17:42:04.194Z,2.40
2023-07-26T17:44:31.484Z,5.95
2023-07-26T17:46:59.186Z,2.42
2023-07-26T17:49:26.575Z,1.40
2023-07-26T17:51:54.156Z,2.40
2023-07-26T17:54:21.465Z,1.58
2023-07-26T17:56:51.016Z,6.05
2023-07-26T17:59:19.764Z,3.15
2023-07-26T18:01:47.316Z,2.35
2023-07-26T18:04:14.679Z,1.70
2023-07-26T18:06:42.251Z,2.67
2023-07-26T18:09:09.564Z,2.22
2023-07-26T18:11:37.522Z,1.85
2023-07-26T18:14:04.774Z,3.15
2023-07-26T18:16:32.329Z,1.67
2023-07-26T18:18:59.684Z,1.92
2023-07-26T18:21:27.248Z,2.03
2023-07-26T18:23:54.564Z,2.83
2023-07-26T18:26:22.121Z,2.08
2023-07-26T18:28:49.418Z,2.60
2023-07-26T18:31:17.003Z,3.30
2023-07-26T18:33:44.382Z,1.52
2023-07-26T18:36:11.992Z,2.55
2023-07-26T18:38:39.503Z,1.80
2023-07-26T18:41:07.498Z,1.80
2023-07-26T18:43:35.135Z,2.20
2023-07-26T18:46:02.700Z,3.45
2023-07-26T18:48:30.000Z,2.08
2023-07-26T18:50:59.522Z,2.65
2023-07-26T18:53:27.006Z,2.05
2023-07-26T18:55:54.567Z,1.90
2023-07-26T18:58:21.851Z,1.65
2023-07-26T19:00:49.461Z,1.80
2023-07-26T19:03:16.916Z,1.38
2023-07-26T19:05:44.569Z,2.55
2023-07-26T19:08:12.355Z,1.15
2023-07-26T19:10:40.490Z,8.68
2023-07-26T19:13:08.752Z,2.55
2023-07-26T19:15:36.570Z,3.63
2023-07-26T19:18:04.275Z,2.20
2023-07-26T19:20:32.003Z,3.38
2023-07-26T19:22:59.298Z,2.47
2023-07-26T19:25:26.841Z,2.38
2023-07-26T19:27:54.141Z,1.67
2023-07-26T19:30:21.777Z,2.97
2023-07-26T19:32:49.064Z,3.50
2023-07-26T19:35:16.898Z,2.60
2023-07-26T19:37:44.289Z,2.17
2023-07-26T19:40:12.156Z,2.75
2023-07-26T19:42:39.413Z,2.45
2023-07-26T19:45:07.330Z,1.75
2023-07-26T19:47:34.627Z,1.75
2023-07-26T19:50:02.237Z,1.95
2023-07-26T19:52:29.688Z,1.75
2023-07-26T19:54:57.251Z,1.95
2023-07-26T19:57:24.506Z,3.10
2023-07-26T19:59:52.080Z,1.67
2023-07-26T20:02:19.408Z,1.98
2023-07-26T20:04:47.030Z,3.17
2023-07-26T20:07:14.505Z,1.83
2023-07-26T20:09:42.199Z,2.03
2023-07-26T20:12:09.673Z,3.05
2023-07-26T20:14:37.302Z,5.15
2023-07-26T20:17:04.966Z,1.70
2023-07-26T20:19:32.580Z,3.05
2023-07-26T20:21:59.900Z,2.05
2023-07-26T20:24:27.477Z,1.35
2023-07-26T20:26:54.851Z,2.67
2023-07-26T20:29:22.455Z,2.72
2023-07-26T20:31:49.767Z,2.67
2023-07-26T20:34:17.357Z,2.03
2023-07-26T20:36:44.661Z,2.05
2023-07-26T20:39:12.547Z,4.07
2023-07-26T20:41:39.818Z,2.08
2023-07-26T20:44:07.414Z,1.95
2023-07-26T20:46:34.703Z,2.88
2023-07-26T20:49:02.501Z,2.80
2023-07-26T20:51:30.033Z,1.95
2023-07-26T20:53:57.616Z,3.67
2023-07-26T20:56:24.995Z,3.88
2023-07-26T20:58:52.566Z,4.10
2023-07-26T21:01:19.945Z,3.58
2023-07-26T21:03:47.616Z,3.17
2023-07-26T21:06:16.223Z,2.70
2023-07-26T21:08:43.909Z,3.75
2023-07-26T21:11:11.260Z,2.13
2023-07-26T21:13:38.809Z,3.03
2023-07-26T21:16:06.203Z,4.72
2023-07-26T21:18:33.808Z,4.88
2023-07-26T21:21:01.114Z,2.33
2023-07-26T21:23:28.740Z,6.65
2023-07-26T21:25:56.043Z,2.42
2023-07-26T21:28:23.620Z,7.10
2023-07-26T21:30:51.456Z,5.35
2023-07-26T21:33:19.051Z,2.40
2023-07-26T21:35:47.397Z,5.93
2023-07-26T21:38:14.984Z,7.35
2023-07-26T21:40:42.392Z,4.85
2023-07-26T21:43:09.985Z,2.53
2023-07-26T21:45:37.288Z,2.50
2023-07-26T21:48:05.274Z,3.03
2023-07-26T21:50:32.862Z,4.25
2023-07-26T21:53:00.429Z,2.33
2023-07-26T21:55:27.683Z,4.07
2023-07-26T21:57:55.264Z,2.75
2023-07-26T22:00:22.557Z,5.13
2023-07-26T22:02:50.157Z,3.10
2023-07-26T22:05:17.478Z,4.70
2023-07-26T22:07:45.122Z,4.80
2023-07-26T22:10:12.603Z,4.68
2023-07-26T22:12:40.199Z,4.10
2023-07-26T22:15:07.810Z,5.25
2023-07-26T22:17:35.471Z,2.20
2023-07-26T22:20:02.777Z,4.55
2023-07-26T22:22:30.357Z,5.07
2023-07-26T22:24:57.666Z,2.42
2023-07-26T22:27:25.279Z,2.88
2023-07-26T22:29:52.576Z,4.30
2023-07-26T22:32:20.132Z,3.78
2023-07-26T22:34:47.433Z,3.47
2023-07-26T22:37:16.284Z,3.03
2023-07-26T22:39:43.575Z,3.53
2023-07-26T22:42:11.276Z,3.55
2023-07-26T22:44:38.557Z,3.42
2023-07-26T22:47:06.152Z,3.58
2023-07-26T22:49:33.448Z,4.63
2023-07-26T22:52:01.026Z,3.75
2023-07-26T22:54:28.281Z,3.85
2023-07-26T22:56:55.893Z,3.38
2023-07-26T22:59:23.257Z,5.38
2023-07-26T23:01:50.872Z,3.90
2023-07-26T23:04:18.185Z,2.45
2023-07-26T23:06:45.849Z,4.22
2023-07-26T23:09:13.271Z,5.22
2023-07-26T23:11:40.805Z,3.17
2023-07-26T23:14:08.084Z,4.53
2023-07-26T23:16:35.889Z,3.08
2023-07-26T23:19:03.371Z,4.38
2023-07-26T23:21:30.916Z,2.65
2023-07-26T23:23:58.201Z,3.17
2023-07-26T23:26:25.816Z,6.57
2023-07-26T23:28:53.156Z,5.07
2023-07-26T23:31:20.740Z,4.13
2023-07-26T23:33:48.048Z,2.80
2023-07-26T23:36:15.592Z,3.95
2023-07-26T23:38:42.884Z,4.47
2023-07-26T23:41:10.496Z,4.13
2023-07-26T23:43:37.801Z,3.53
2023-07-26T23:46:05.416Z,4.90
2023-07-26T23:48:32.742Z,5.88
2023-07-26T23:51:00.303Z,2.75
2023-07-26T23:53:27.597Z,2.70
2023-07-26T23:55:55.207Z,4.50
2023-07-26T23:58:22.537Z,8.15
